createdAt,value
2018-03-19T00:02:48.316Z,16.97
2018-03-19T00:05:51.606Z,22.75
2018-03-19T00:08:54.912Z,16.67
2018-03-19T00:11:58.216Z,18.92
2018-03-19T00:15:01.566Z,17.55
2018-03-19T00:18:05.692Z,20.03
2018-03-19T00:21:25.432Z,18.27
2018-03-19T00:24:29.638Z,22.40
2018-03-19T00:27:33.094Z,18.93
2018-03-19T00:30:37.143Z,19.17
2018-03-19T00:33:41.196Z,25.70
2018-03-19T00:36:44.628Z,20.90
2018-03-19T00:39:48.668Z,17.57
2018-03-19T00:42:51.941Z,20.07
2018-03-19T00:45:55.985Z,18.50
2018-03-19T00:48:59.256Z,18.70
2018-03-19T00:52:02.539Z,21.23
2018-03-19T00:55:06.577Z,19.80
2018-03-19T00:58:09.894Z,21.07
2018-03-19T01:01:17.381Z,20.93
2018-03-19T01:04:20.679Z,12.80
2018-03-19T01:07:24.108Z,15.37
2018-03-19T01:10:27.558Z,11.63
2018-03-19T01:13:30.881Z,16.10
2018-03-19T01:16:34.161Z,13.60
2018-03-19T01:19:37.724Z,13.50
2018-03-19T01:22:41.013Z,15.23
2018-03-19T01:25:44.379Z,13.63
2018-03-19T01:28:47.679Z,14.87
2018-03-19T01:31:51.059Z,17.73
2018-03-19T01:34:54.323Z,15.07
2018-03-19T01:37:57.725Z,14.70
2018-03-19T01:41:01.018Z,14.90
2018-03-19T01:44:05.482Z,15.70
2018-03-19T01:47:08.761Z,11.00
2018-03-19T01:50:12.799Z,13.47
2018-03-19T01:53:19.326Z,14.53
2018-03-19T01:56:22.591Z,18.23
2018-03-19T01:59:26.133Z,13.33
2018-03-19T02:02:30.199Z,12.30
2018-03-19T02:05:33.473Z,14.27
2018-03-19T02:08:36.757Z,14.02
2018-03-19T02:11:40.797Z,10.80
2018-03-19T02:14:44.092Z,13.73
2018-03-19T02:17:47.404Z,15.93
2018-03-19T02:20:50.784Z,7.37
2018-03-19T02:23:54.130Z,15.13
2018-03-19T02:26:57.413Z,15.30
2018-03-19T02:30:00.695Z,12.52
2018-03-19T02:33:04.086Z,15.47
2018-03-19T02:36:07.350Z,13.03
2018-03-19T02:39:11.405Z,16.87
2018-03-19T02:42:14.920Z,9.88
2018-03-19T02:45:18.193Z,13.90
2018-03-19T02:48:21.524Z,11.43
2018-03-19T02:51:24.876Z,10.90
2018-03-19T02:54:29.125Z,15.17
2018-03-19T02:57:32.413Z,14.65
2018-03-19T03:00:35.725Z,13.93
2018-03-19T03:03:38.989Z,12.00
2018-03-19T03:06:42.270Z,16.55
2018-03-19T03:09:46.421Z,20.10
2018-03-19T03:12:49.714Z,13.10
2018-03-19T03:15:53.033Z,10.90
2018-03-19T03:18:56.314Z,10.10
2018-03-19T03:21:59.674Z,18.63
2018-03-19T03:25:03.815Z,20.12
2018-03-19T03:28:07.099Z,14.80
2018-03-19T03:31:11.130Z,16.47
2018-03-19T03:34:14.403Z,14.77
2018-03-19T03:37:18.457Z,16.63
2018-03-19T03:40:21.722Z,13.83
2018-03-19T03:43:25.849Z,10.90
2018-03-19T03:46:29.146Z,15.32
2018-03-19T03:49:33.262Z,15.30
2018-03-19T03:52:36.571Z,11.50
2018-03-19T03:55:39.937Z,10.10
2018-03-19T03:58:43.259Z,12.32
2018-03-19T04:01:46.970Z,20.52
2018-03-19T04:04:50.272Z,9.87
2018-03-19T04:07:53.596Z,11.97
2018-03-19T04:10:56.868Z,14.40
2018-03-19T04:14:00.163Z,11.32
2018-03-19T04:17:03.446Z,16.30
2018-03-19T04:20:07.577Z,12.97
2018-03-19T04:23:10.864Z,19.23
2018-03-19T04:26:14.144Z,10.65
2018-03-19T04:29:17.470Z,12.60
2018-03-19T04:32:20.771Z,14.10
2018-03-19T04:35:24.047Z,10.47
2018-03-19T04:38:28.094Z,13.73
2018-03-19T04:41:50.394Z,8.60
2018-03-19T04:44:55.887Z,10.30
2018-03-19T04:47:59.168Z,13.00
2018-03-19T04:51:02.442Z,11.40
2018-03-19T04:54:06.484Z,9.83
2018-03-19T04:57:09.796Z,11.32
2018-03-19T05:00:13.278Z,8.00
2018-03-19T05:03:16.678Z,12.57
2018-03-19T05:06:20.180Z,9.70
2018-03-19T05:09:23.579Z,9.40
2018-03-19T05:12:41.193Z,12.67
2018-03-19T05:15:44.596Z,12.20
2018-03-19T05:18:48.676Z,15.93
2018-03-19T05:21:51.953Z,9.40
2018-03-19T05:24:56.606Z,9.10
2018-03-19T05:28:27.005Z,13.70
2018-03-19T05:31:45.870Z,10.67
2018-03-19T05:34:50.288Z,14.43
2018-03-19T05:37:53.976Z,13.45
2018-03-19T05:40:57.311Z,12.03
2018-03-19T05:44:00.677Z,9.67
2018-03-19T05:47:04.358Z,11.57
2018-03-19T05:50:08.195Z,12.97
2018-03-19T05:53:11.478Z,12.68
2018-03-19T05:56:15.533Z,15.77
2018-03-19T05:59:18.919Z,13.43
2018-03-19T06:02:22.411Z,20.55
2018-03-19T06:05:26.448Z,14.77
2018-03-19T06:08:29.737Z,11.65
2018-03-19T06:11:34.618Z,18.33
2018-03-19T06:14:37.887Z,23.70
2018-03-19T06:17:41.178Z,16.10
2018-03-19T06:20:44.460Z,14.15
2018-03-19T06:23:47.754Z,14.87
2018-03-19T06:26:51.017Z,13.73
2018-03-19T06:29:54.328Z,13.75
2018-03-19T06:32:57.600Z,17.03
2018-03-19T06:36:00.949Z,17.70
2018-03-19T06:39:04.227Z,16.60
2018-03-19T06:42:08.281Z,18.60
2018-03-19T06:45:11.618Z,25.50
2018-03-19T06:48:15.656Z,15.47
2018-03-19T06:51:19.701Z,11.93
2018-03-19T06:54:23.094Z,14.73
2018-03-19T06:57:26.429Z,13.13
2018-03-19T07:00:29.818Z,17.70
2018-03-19T07:03:34.397Z,16.80
2018-03-19T07:06:38.530Z,21.57
2018-03-19T07:09:42.662Z,18.33
2018-03-19T07:12:46.185Z,17.53
2018-03-19T07:15:49.553Z,28.63
2018-03-19T07:18:52.860Z,18.87
2018-03-19T07:21:56.147Z,18.07
2018-03-19T07:25:00.241Z,19.27
2018-03-19T07:28:03.563Z,16.57
2018-03-19T07:31:07.797Z,25.07
2018-03-19T07:34:11.076Z,16.57
2018-03-19T07:37:15.109Z,16.97
2018-03-19T07:40:18.510Z,17.00
2018-03-19T07:43:21.864Z,17.57
2018-03-19T07:46:25.902Z,16.67
2018-03-19T07:49:29.962Z,16.17
2018-03-19T07:52:33.229Z,10.57
2018-03-19T07:55:36.504Z,19.20
2018-03-19T07:58:40.544Z,15.60
2018-03-19T08:01:43.819Z,20.73
2018-03-19T08:04:47.897Z,21.73
2018-03-19T08:07:51.181Z,16.67
2018-03-19T08:10:54.450Z,18.67
2018-03-19T08:13:57.735Z,18.12
2018-03-19T08:17:01.009Z,17.00
2018-03-19T08:20:05.042Z,17.63
2018-03-19T08:23:09.566Z,19.60
2018-03-19T08:26:13.830Z,15.93
2018-03-19T08:29:17.112Z,14.23
2018-03-19T08:32:20.377Z,16.83
2018-03-19T08:35:24.417Z,20.15
2018-03-19T08:38:27.700Z,23.60
2018-03-19T08:41:31.734Z,18.73
2018-03-19T08:44:35.010Z,20.03
2018-03-19T08:47:38.603Z,18.47
2018-03-19T08:50:42.660Z,16.70
2018-03-19T08:53:46.313Z,18.93
2018-03-19T08:56:50.352Z,17.37
2018-03-19T08:59:53.647Z,14.60
2018-03-19T09:02:57.690Z,18.37
2018-03-19T09:06:00.974Z,18.03
2018-03-19T09:09:04.245Z,18.73
2018-03-19T09:12:08.269Z,13.80
2018-03-19T09:15:12.305Z,16.20
2018-03-19T09:18:15.590Z,18.33
2018-03-19T09:21:19.634Z,20.77
2018-03-19T09:24:23.012Z,16.17
2018-03-19T09:27:26.308Z,18.13
2018-03-19T09:30:29.594Z,20.87
2018-03-19T09:33:32.911Z,23.13
2018-03-19T09:36:36.205Z,18.83
2018-03-19T09:39:40.319Z,20.53
2018-03-19T09:42:43.604Z,21.97
2018-03-19T09:45:47.312Z,18.60
2018-03-19T09:48:50.590Z,19.03
2018-03-19T09:51:54.865Z,22.47
2018-03-19T09:54:58.170Z,22.73
2018-03-19T09:58:01.693Z,21.43
2018-03-19T10:01:05.307Z,18.02
2018-03-19T10:04:09.621Z,22.20
2018-03-19T10:07:13.229Z,18.60
2018-03-19T10:10:17.461Z,18.10
2018-03-19T10:13:21.820Z,18.63
2018-03-19T10:16:25.492Z,19.40
2018-03-19T10:19:29.530Z,16.37
2018-03-19T10:22:32.796Z,19.63
2018-03-19T10:25:36.076Z,15.30
2018-03-19T10:28:39.353Z,16.20
2018-03-19T10:31:42.750Z,23.33
2018-03-19T10:34:46.061Z,23.55
2018-03-19T10:37:49.334Z,16.50
2018-03-19T10:40:52.715Z,17.40
2018-03-19T10:43:56.756Z,24.02
2018-03-19T10:47:00.026Z,23.93
2018-03-19T10:50:03.403Z,24.10
2018-03-19T10:53:06.762Z,16.13
2018-03-19T10:56:10.055Z,17.75
2018-03-19T10:59:13.334Z,24.43
2018-03-19T11:05:56.523Z,18.97
2018-03-19T11:09:05.273Z,23.30
2018-03-19T11:12:08.652Z,23.00
2018-03-19T11:15:12.630Z,22.83
2018-03-19T11:18:15.962Z,20.53
2018-03-19T11:21:19.245Z,20.62
2018-03-19T11:24:22.525Z,29.90
2018-03-19T11:27:25.795Z,23.07
2018-03-19T11:30:29.841Z,21.10
2018-03-19T11:33:33.333Z,24.23
2018-03-19T11:36:36.636Z,25.60
2018-03-19T11:39:40.187Z,22.73
2018-03-19T11:42:43.518Z,19.63
2018-03-19T11:45:47.847Z,22.67
2018-03-19T11:48:51.129Z,24.33
2018-03-19T11:51:55.165Z,17.77
2018-03-19T11:54:58.546Z,21.13
2018-03-19T11:58:02.594Z,22.13
2018-03-19T12:01:06.794Z,24.73
2018-03-19T12:04:10.362Z,20.97
2018-03-19T12:07:13.688Z,22.03
2018-03-19T12:10:17.724Z,23.03
2018-03-19T12:13:20.991Z,17.30
2018-03-19T12:16:25.035Z,24.95
2018-03-19T12:19:29.725Z,21.57
2018-03-19T12:22:33.789Z,17.20
2018-03-19T12:25:37.071Z,22.30
2018-03-19T12:28:40.345Z,22.17
2018-03-19T12:31:44.388Z,19.73
2018-03-19T12:34:47.713Z,23.87
2018-03-19T12:37:51.053Z,23.70
2018-03-19T12:40:55.129Z,20.65
2018-03-19T12:43:59.494Z,20.57
2018-03-19T12:47:03.524Z,20.13
2018-03-19T12:50:07.089Z,23.57
2018-03-19T12:53:10.378Z,24.23
2018-03-19T12:56:13.889Z,18.13
2018-03-19T12:59:17.944Z,23.83
2018-03-19T13:02:21.230Z,23.60
2018-03-19T13:05:25.278Z,21.67
2018-03-19T13:08:28.820Z,18.90
2018-03-19T13:11:32.268Z,20.93
2018-03-19T13:14:35.569Z,25.55
2018-03-19T13:17:39.436Z,26.57
2018-03-19T13:20:43.175Z,24.67
2018-03-19T13:23:46.445Z,26.90
2018-03-19T13:26:50.540Z,23.23
2018-03-19T13:29:54.049Z,25.97
2018-03-19T13:32:57.328Z,22.47
2018-03-19T13:36:00.618Z,20.20
2018-03-19T13:39:03.897Z,21.83
2018-03-19T13:42:07.281Z,20.67
2018-03-19T13:45:11.329Z,24.57
2018-03-19T13:48:14.872Z,21.23
2018-03-19T13:51:18.142Z,25.60
2018-03-19T13:54:22.414Z,18.67
2018-03-19T13:57:26.464Z,22.70
2018-03-19T14:00:29.770Z,28.13
2018-03-19T14:03:33.337Z,23.33
2018-03-19T14:06:36.611Z,24.00
2018-03-19T14:09:40.649Z,20.53
2018-03-19T14:12:45.687Z,25.27
2018-03-19T14:15:50.502Z,23.07
2018-03-19T14:18:54.555Z,24.23
2018-03-19T14:21:57.836Z,29.43
2018-03-19T14:25:01.105Z,19.10
2018-03-19T14:28:04.438Z,20.40
2018-03-19T14:31:07.676Z,24.57
2018-03-19T14:34:11.012Z,23.37
2018-03-19T14:37:14.326Z,23.73
2018-03-19T14:40:17.614Z,19.20
2018-03-19T14:43:21.768Z,20.50
2018-03-19T14:46:25.047Z,20.37
2018-03-19T14:49:29.174Z,24.63
2018-03-19T14:52:32.457Z,23.03
2018-03-19T14:55:36.532Z,21.27
2018-03-19T14:58:39.803Z,20.77
2018-03-19T15:01:43.088Z,23.00
2018-03-19T15:04:46.368Z,22.90
2018-03-19T15:07:49.667Z,20.30
2018-03-19T15:10:53.767Z,24.40
2018-03-19T15:13:57.832Z,21.63
2018-03-19T15:17:01.113Z,20.70
2018-03-19T15:20:04.441Z,23.37
2018-03-19T15:23:07.813Z,23.83
2018-03-19T15:26:11.112Z,27.43
2018-03-19T15:29:14.413Z,19.90
2018-03-19T15:32:17.715Z,21.63
2018-03-19T15:35:20.992Z,21.57
2018-03-19T15:38:24.365Z,25.17
2018-03-19T15:41:27.685Z,27.30
2018-03-19T15:44:31.818Z,25.67
2018-03-19T15:47:35.101Z,23.20
2018-03-19T15:50:39.834Z,22.67
2018-03-19T15:53:43.140Z,21.47
2018-03-19T15:56:46.439Z,28.80
2018-03-19T15:59:49.734Z,24.33
2018-03-19T16:02:53.034Z,24.10
2018-03-19T16:05:56.318Z,32.10
2018-03-19T16:09:00.357Z,28.75
2018-03-19T16:12:03.682Z,22.97
2018-03-19T16:15:06.945Z,23.97
2018-03-19T16:18:10.233Z,22.57
2018-03-19T16:21:13.736Z,29.83
2018-03-19T16:24:17.242Z,32.27
2018-03-19T16:27:23.174Z,24.83
2018-03-19T16:30:48.763Z,26.83
2018-03-19T16:33:54.563Z,24.17
2018-03-19T16:36:59.066Z,27.27
2018-03-19T16:40:02.331Z,35.20
2018-03-19T16:43:05.634Z,27.00
2018-03-19T16:46:08.912Z,30.00
2018-03-19T16:49:12.289Z,19.50
2018-03-19T16:52:15.622Z,24.93
2018-03-19T16:55:18.984Z,30.50
2018-03-19T16:58:22.794Z,32.83
2018-03-19T17:01:26.101Z,23.55
2018-03-19T17:04:29.401Z,25.83
2018-03-19T17:07:33.434Z,28.47
2018-03-19T17:10:36.724Z,27.23
2018-03-19T17:13:40.326Z,27.40
2018-03-19T17:16:43.623Z,25.27
2018-03-19T17:19:47.259Z,28.00
2018-03-19T17:22:50.767Z,24.60
2018-03-19T17:25:54.219Z,24.08
2018-03-19T17:28:57.577Z,40.93
2018-03-19T17:32:00.867Z,22.50
2018-03-19T17:35:04.156Z,26.73
2018-03-19T17:38:07.438Z,25.37
2018-03-19T17:41:10.868Z,24.43
2018-03-19T17:44:14.165Z,28.27
2018-03-19T17:47:17.459Z,28.40
2018-03-19T17:50:20.762Z,20.63
2018-03-19T17:53:24.150Z,30.43
2018-03-19T17:56:27.538Z,28.27
2018-03-19T17:59:30.849Z,28.47
2018-03-19T18:02:34.149Z,28.40
2018-03-19T18:05:37.558Z,31.47
2018-03-19T18:08:40.875Z,24.20
2018-03-19T18:11:44.144Z,22.73
2018-03-19T18:14:47.540Z,22.53
2018-03-19T18:17:51.188Z,28.30
2018-03-19T18:20:54.645Z,25.30
2018-03-19T18:23:58.325Z,34.90
2018-03-19T18:27:01.657Z,31.50
2018-03-19T18:30:05.222Z,27.20
2018-03-19T18:33:08.637Z,25.03
2018-03-19T18:36:13.168Z,24.60
2018-03-19T18:39:16.665Z,21.57
2018-03-19T18:42:19.968Z,31.50
2018-03-19T18:45:23.414Z,27.97
2018-03-19T18:48:26.654Z,28.97
2018-03-19T18:51:30.697Z,24.83
2018-03-19T18:54:33.981Z,29.47
2018-03-19T18:57:37.295Z,24.73
2018-03-19T19:00:40.574Z,24.60
2018-03-19T19:03:43.884Z,32.23
2018-03-19T19:06:47.194Z,24.50
2018-03-19T19:09:51.146Z,31.63
2018-03-19T19:12:54.442Z,32.57
2018-03-19T19:15:57.741Z,27.67
2018-03-19T19:19:01.217Z,22.10
2018-03-19T19:22:05.400Z,30.83
2018-03-19T19:25:14.502Z,23.63
2018-03-19T19:28:18.734Z,34.37
2018-03-19T19:31:22.009Z,29.77
2018-03-19T19:34:26.856Z,28.05
2018-03-19T19:37:30.913Z,28.97
2018-03-19T19:40:35.591Z,23.83
2018-03-19T19:43:39.232Z,28.60
2018-03-19T19:46:44.623Z,35.07
2018-03-19T19:49:48.071Z,26.93
2018-03-19T19:52:51.726Z,30.57
2018-03-19T19:55:55.511Z,28.77
2018-03-19T19:58:59.101Z,28.83
2018-03-19T20:02:03.136Z,32.20
2018-03-19T20:05:06.488Z,31.70
2018-03-19T20:08:09.962Z,36.20
2018-03-19T20:11:13.742Z,27.10
2018-03-19T20:14:17.362Z,26.62
2018-03-19T20:17:20.815Z,28.93
2018-03-19T20:20:24.943Z,28.83
2018-03-19T20:23:29.557Z,29.03
2018-03-19T20:26:32.987Z,28.70
2018-03-19T20:29:36.520Z,33.73
2018-03-19T20:32:40.190Z,27.67
2018-03-19T20:35:44.783Z,31.60
2018-03-19T20:38:53.275Z,31.03
2018-03-19T20:41:56.653Z,27.53
2018-03-19T20:45:01.511Z,22.23
2018-03-19T20:48:04.911Z,38.20
2018-03-19T20:51:08.545Z,29.13
2018-03-19T20:54:22.109Z,26.87
2018-03-19T20:57:32.281Z,29.07
2018-03-19T21:00:40.523Z,29.57
2018-03-19T21:03:45.606Z,30.63
2018-03-19T21:06:51.006Z,37.80
2018-03-19T21:09:55.125Z,33.00
2018-03-19T21:13:03.165Z,29.13
2018-03-19T21:16:10.893Z,31.10
2018-03-19T21:19:14.238Z,33.73
2018-03-19T21:22:18.583Z,27.80
2018-03-19T21:25:23.364Z,28.77
2018-03-19T21:28:27.633Z,33.77
2018-03-19T21:31:32.154Z,29.97
2018-03-19T21:34:35.529Z,29.67
2018-03-19T21:37:39.873Z,30.57
2018-03-19T21:40:43.345Z,32.47
2018-03-19T21:43:46.745Z,31.40
2018-03-19T21:46:50.146Z,29.47
2018-03-19T21:49:54.263Z,35.17
2018-03-19T21:52:57.694Z,30.00
2018-03-19T21:56:02.223Z,32.27
2018-03-19T21:59:09.940Z,27.50
2018-03-19T22:02:13.234Z,34.03
2018-03-19T22:05:16.562Z,29.67
2018-03-19T22:08:21.225Z,29.57
2018-03-19T22:11:24.712Z,32.27
2018-03-19T22:14:28.024Z,26.37
2018-03-19T22:17:31.608Z,32.43
2018-03-19T22:24:04.653Z,31.43
2018-03-19T22:27:07.970Z,28.00
2018-03-19T22:30:11.278Z,28.63
2018-03-19T22:33:14.982Z,28.80
2018-03-19T22:36:19.056Z,30.90
2018-03-19T22:39:22.516Z,38.53
2018-03-19T22:42:25.965Z,32.63
2018-03-19T22:45:29.270Z,37.87
2018-03-19T22:48:32.570Z,37.83
2018-03-19T22:51:35.913Z,37.45
2018-03-19T22:54:40.017Z,38.77
2018-03-19T22:57:44.098Z,37.17
2018-03-19T23:00:47.392Z,32.73
2018-03-19T23:03:51.368Z,32.17
2018-03-19T23:06:54.661Z,34.00
2018-03-19T23:09:57.995Z,40.40
2018-03-19T23:13:01.300Z,30.73
2018-03-19T23:16:04.626Z,27.60
2018-03-19T23:19:07.943Z,29.90
2018-03-19T23:22:12.014Z,29.33
2018-03-19T23:25:15.296Z,28.73
2018-03-19T23:28:18.573Z,27.43
2018-03-19T23:31:21.877Z,28.57
2018-03-19T23:34:25.231Z,28.67
2018-03-19T23:37:28.533Z,29.97
2018-03-19T23:40:32.220Z,34.90
2018-03-19T23:43:37.546Z,26.90
2018-03-19T23:46:40.845Z,27.62
2018-03-19T23:49:44.278Z,38.67
2018-03-19T23:52:47.535Z,25.80
2018-03-19T23:55:50.856Z,34.40
2018-03-19T23:58:54.161Z,30.30
